Time;durP1;ratioP1;P1;durP2;ratioP2;P2;SDS_P1;SDS_P2;PMS_P1;PMS_P2;Temp;Humidity;BMP_temperature;BMP_pressure;BME280_temperature;BME280_humidity;BME280_pressure;Samples;Min_cycle;Max_cycle;Signal;HPM_P1;HPM_P2
2022/07/01 00:01:33;;;;;;;2.28;1.73;;;;;;;17.53;67.60;96449.28;5014883;28;20124;-61
2022/07/01 00:04:01;;;;;;;3.20;2.38;;;;;;;17.49;67.90;96451.28;5014779;28;20052;-63
2022/07/01 00:06:28;;;;;;;5.53;2.30;;;;;;;17.46;67.91;96448.03;5014669;28;20053;-63
2022/07/01 00:08:55;;;;;;;8.00;2.80;;;;;;;17.42;67.83;96444.72;5014871;28;20050;-62
2022/07/01 00:11:24;;;;;;;4.78;2.30;;;;;;;17.40;67.79;96426.31;5014927;28;20470;-62
2022/07/01 00:13:51;;;;;;;5.47;2.20;;;;;;;17.32;67.97;96425.16;5014872;28;20528;-62
2022/07/01 00:16:18;;;;;;;4.22;2.45;;;;;;;17.29;67.94;96431.50;5014792;28;20050;-62
2022/07/01 00:18:46;;;;;;;4.97;2.08;;;;;;;17.17;68.25;96444.59;5014629;28;20053;-62
2022/07/01 00:21:14;;;;;;;5.60;2.70;;;;;;;17.02;68.78;96441.13;5014565;28;20141;-62
2022/07/01 00:23:41;;;;;;;4.15;2.20;;;;;;;17.02;68.80;96448.22;5014600;28;20081;-62
2022/07/01 00:26:08;;;;;;;12.27;2.67;;;;;;;17.04;68.77;96454.25;5014422;28;20054;-62
2022/07/01 00:28:37;;;;;;;3.70;2.28;;;;;;;17.03;68.71;96453.38;5014346;28;20142;-62
2022/07/01 00:31:04;;;;;;;2.88;2.40;;;;;;;17.05;68.61;96458.56;5014375;28;20451;-62
2022/07/01 00:33:31;;;;;;;8.63;2.38;;;;;;;17.01;68.42;96454.44;5014376;28;20056;-62
2022/07/01 00:36:00;;;;;;;4.60;2.40;;;;;;;16.98;68.64;96452.81;5014193;28;20056;-62
2022/07/01 00:38:27;;;;;;;3.40;3.08;;;;;;;16.96;68.82;96461.81;5014246;28;20050;-62
2022/07/01 00:40:54;;;;;;;5.40;2.42;;;;;;;16.84;68.85;96459.03;5014157;28;20045;-62
2022/07/01 00:43:24;;;;;;;6.05;2.60;;;;;;;16.70;69.52;96453.81;5014193;28;20052;-62
2022/07/01 00:45:53;;;;;;;2.95;2.28;;;;;;;16.63;69.75;96453.31;5014238;28;20046;-62
2022/07/01 00:48:22;;;;;;;2.38;2.13;;;;;;;16.66;70.10;96447.84;5014168;28;20124;-62
2022/07/01 00:50:49;;;;;;;4.05;2.25;;;;;;;16.71;69.74;96434.38;5013928;28;20053;-62
2022/07/01 00:53:16;;;;;;;3.60;2.50;;;;;;;16.75;69.64;96438.50;5013990;28;20455;-62
2022/07/01 00:55:43;;;;;;;5.05;2.58;;;;;;;16.81;69.70;96438.09;5014037;28;20436;-62
2022/07/01 00:58:11;;;;;;;4.32;2.30;;;;;;;16.77;69.54;96434.78;5013976;28;20491;-62
2022/07/01 01:00:39;;;;;;;8.32;2.60;;;;;;;16.74;69.97;96431.53;5013695;28;20089;-62
2022/07/01 01:03:10;;;;;;;3.85;2.60;;;;;;;16.76;69.78;96432.25;5013883;28;20042;-62
2022/07/01 01:05:38;;;;;;;5.32;2.30;;;;;;;16.70;70.15;96430.88;5013764;28;20502;-62
2022/07/01 01:08:06;;;;;;;8.10;2.63;;;;;;;16.69;70.25;96429.19;5013756;28;20053;-62
2022/07/01 01:10:35;;;;;;;2.75;2.22;;;;;;;16.67;70.34;96418.72;5013682;28;20046;-62
2022/07/01 01:13:03;;;;;;;3.38;2.30;;;;;;;16.65;70.24;96417.13;5013667;28;20050;-62
2022/07/01 01:15:31;;;;;;;2.70;2.50;;;;;;;16.64;70.39;96418.91;5013690;28;20064;-62
2022/07/01 01:17:58;;;;;;;3.42;2.60;;;;;;;16.63;70.22;96419.00;5013605;28;20479;-62
2022/07/01 01:20:26;;;;;;;2.40;2.20;;;;;;;16.65;70.44;96417.94;5013042;28;20053;-62
2022/07/01 01:22:55;;;;;;;3.33;2.38;;;;;;;16.64;70.24;96421.56;5013518;28;20046;-62
2022/07/01 01:25:23;;;;;;;3.28;2.30;;;;;;;16.63;70.20;96421.66;5013574;28;20083;-62
2022/07/01 01:27:50;;;;;;;5.30;2.80;;;;;;;16.61;70.34;96416.47;5013220;28;20408;-62
2022/07/01 01:30:17;;;;;;;3.00;2.45;;;;;;;16.58;70.26;96415.84;5013419;28;20061;-62
2022/07/01 01:32:45;;;;;;;4.22;2.28;;;;;;;16.51;70.32;96415.34;5013507;28;20057;-62
2022/07/01 01:35:13;;;;;;;4.57;2.60;;;;;;;16.53;70.37;96410.84;5013286;28;20124;-62
2022/07/01 01:37:40;;;;;;;8.30;2.67;;;;;;;16.53;70.37;96416.13;5013407;28;20050;-62
2022/07/01 01:40:10;;;;;;;4.43;2.50;;;;;;;16.52;70.25;96412.63;5013506;28;20084;-62
2022/07/01 01:42:37;;;;;;;3.65;2.65;;;;;;;16.51;70.73;96408.31;5013314;28;20057;-62
2022/07/01 01:45:05;;;;;;;2.58;2.35;;;;;;;16.52;70.63;96411.78;5013363;28;20045;-62
2022/07/01 01:47:32;;;;;;;5.88;2.90;;;;;;;16.48;70.68;96415.56;5013421;28;20092;-62
2022/07/01 01:49:59;;;;;;;3.80;2.60;;;;;;;16.43;71.39;96423.75;5013521;28;20438;-62
2022/07/01 01:52:27;;;;;;;2.95;2.70;;;;;;;16.41;71.06;96423.03;5013308;28;20046;-62
2022/07/01 02:12:00;;;;;;;3.55;3.08;;;;;;;16.35;72.35;96431.34;5131777;27;20367;-60
2022/07/01 02:14:28;;;;;;;3.95;3.53;;;;;;;16.20;72.82;96419.94;5131507;27;20537;-60
2022/07/01 02:16:55;;;;;;;5.30;3.45;;;;;;;16.10;73.53;96420.53;5131646;28;20066;-60
2022/07/01 02:19:22;;;;;;;7.22;3.30;;;;;;;16.01;74.33;96424.59;5131076;28;20083;-60
2022/07/01 02:21:50;;;;;;;5.32;3.17;;;;;;;15.97;74.58;96425.72;5131134;27;20055;-60
2022/07/01 02:24:18;;;;;;;5.35;3.25;;;;;;;15.98;74.34;96416.84;5131129;28;20550;-60
2022/07/01 02:26:45;;;;;;;5.18;2.85;;;;;;;15.99;74.33;96412.44;5131144;27;20039;-60
2022/07/01 02:29:14;;;;;;;5.00;3.20;;;;;;;15.99;74.08;96426.50;5131095;27;20075;-60
2022/07/01 02:31:41;;;;;;;4.20;3.05;;;;;;;15.92;73.88;96422.47;5131003;28;20047;-60
2022/07/01 02:34:08;;;;;;;3.55;3.17;;;;;;;15.93;74.03;96429.47;5130837;28;20059;-60
2022/07/01 02:36:35;;;;;;;5.18;2.83;;;;;;;15.95;74.10;96438.09;5130943;27;20047;-61
2022/07/01 02:39:02;;;;;;;4.15;3.53;;;;;;;15.93;74.43;96442.66;5130986;28;20496;-60
2022/07/01 02:41:29;;;;;;;5.70;3.42;;;;;;;15.86;74.79;96443.97;5130692;27;20051;-60
2022/07/01 02:43:56;;;;;;;4.57;3.20;;;;;;;15.80;75.35;96442.53;5130876;28;20104;-60
2022/07/01 02:46:25;;;;;;;6.22;3.72;;;;;;;15.74;76.74;96433.22;5130765;27;20396;-60
2022/07/01 02:48:52;;;;;;;5.28;3.40;;;;;;;15.71;77.50;96441.31;5130693;28;20055;-60
2022/07/01 02:51:19;;;;;;;6.70;3.72;;;;;;;15.87;78.47;96441.22;5130517;28;20044;-60
2022/07/01 03:04:32;;;;;;;6.18;3.47;;;;;;;16.77;75.29;96444.53;5131748;27;20375;-61
2022/07/01 03:07:00;;;;;;;5.43;3.50;;;;;;;16.75;74.48;96441.13;5131798;27;20178;-62
2022/07/01 03:09:27;;;;;;;11.15;3.63;;;;;;;16.63;73.87;96451.53;5131270;28;20094;-62
2022/07/01 03:11:54;;;;;;;6.28;3.97;;;;;;;16.52;74.91;96454.00;5131147;28;20083;-62
2022/07/01 03:14:21;;;;;;;7.13;3.72;;;;;;;16.46;75.32;96449.97;5131354;27;20047;-62
2022/07/01 03:16:48;;;;;;;4.32;3.38;;;;;;;16.48;75.42;96453.38;5131116;27;20488;-62
2022/07/01 03:19:15;;;;;;;5.18;3.63;;;;;;;16.44;77.17;96456.31;5131185;27;20079;-62
2022/07/01 03:21:44;;;;;;;4.35;3.13;;;;;;;16.43;76.89;96463.34;5131294;27;20096;-62
2022/07/01 03:24:11;;;;;;;5.78;3.42;;;;;;;16.52;76.63;96457.50;5131142;27;20096;-62
2022/07/01 03:26:38;;;;;;;3.75;2.97;;;;;;;16.49;76.12;96452.41;5130919;27;20039;-62
2022/07/01 03:29:05;;;;;;;7.80;3.90;;;;;;;16.52;76.42;96460.16;5130983;27;20062;-62
2022/07/01 03:31:33;;;;;;;6.72;3.30;;;;;;;16.68;76.13;96451.25;5131169;27;20039;-62
2022/07/01 03:34:00;;;;;;;3.78;3.03;;;;;;;16.89;75.34;96442.88;5130786;28;20101;-62
2022/07/01 03:36:27;;;;;;;8.95;3.45;;;;;;;17.22;74.40;96446.06;5130860;27;20097;-62
2022/07/01 03:38:55;;;;;;;5.28;2.92;;;;;;;17.55;72.98;96450.06;5130863;27;20047;-62
2022/07/01 03:41:22;;;;;;;6.50;2.72;;;;;;;17.86;71.59;96444.44;5130890;27;20048;-62
2022/07/01 03:43:49;;;;;;;4.57;2.50;;;;;;;18.19;70.86;96451.03;5130656;27;20043;-62
2022/07/01 03:46:17;;;;;;;5.55;2.60;;;;;;;18.57;69.60;96449.22;5130521;28;20089;-62
2022/07/01 03:48:44;;;;;;;8.52;2.72;;;;;;;18.91;68.66;96445.94;5130464;27;20126;-62
2022/07/01 03:51:11;;;;;;;6.10;2.83;;;;;;;19.26;66.88;96445.13;5130622;27;20043;-62
2022/07/01 03:56:24;;;;;;;5.07;2.65;;;;;;;20.07;64.99;96449.69;5130393;28;20050;-62
2022/07/01 03:58:51;;;;;;;6.13;2.78;;;;;;;20.39;64.12;96450.75;5130412;27;20048;-63
2022/07/01 04:01:18;;;;;;;5.15;2.47;;;;;;;20.73;63.38;96451.66;5130257;27;20043;-62
2022/07/01 04:03:45;;;;;;;6.72;2.50;;;;;;;21.12;63.13;96448.53;5126214;27;20058;-63
2022/07/01 04:06:13;;;;;;;3.17;2.55;;;;;;;21.51;62.03;96446.22;5116543;27;20053;-62
2022/07/01 04:08:40;;;;;;;5.90;2.28;;;;;;;21.86;60.26;96444.22;5116709;28;20052;-62
2022/07/01 04:11:08;;;;;;;6.40;2.30;;;;;;;22.20;59.54;96443.97;5116405;28;20126;-62
2022/07/01 04:13:38;;;;;;;6.55;2.50;;;;;;;22.52;58.69;96447.44;5116460;28;20105;-63
2022/07/01 04:16:06;;;;;;;3.08;2.28;;;;;;;22.76;58.10;96448.94;5116361;28;20075;-63
2022/07/01 04:18:34;;;;;;;12.90;2.25;;;;;;;23.16;58.06;96446.28;5116326;28;20047;-62
2022/07/01 04:23:46;;;;;;;4.95;2.38;;;;;;;23.94;55.41;96448.06;5116376;28;20052;-63
2022/07/01 04:26:13;;;;;;;3.50;2.15;;;;;;;24.23;54.49;96451.66;5116149;28;20047;-63
2022/07/01 04:28:41;;;;;;;4.95;2.10;;;;;;;24.60;54.90;96450.75;5116202;28;20123;-62
2022/07/01 04:31:08;;;;;;;3.20;2.03;;;;;;;24.98;53.82;96458.72;5116186;28;20488;-63
2022/07/01 04:33:36;;;;;;;3.80;2.63;;;;;;;25.24;53.22;96458.00;5115855;27;20047;-63
2022/07/01 04:36:03;;;;;;;6.90;2.63;;;;;;;25.40;52.51;96456.44;5116043;28;20044;-63
2022/07/01 04:38:31;;;;;;;4.65;2.40;;;;;;;25.73;52.11;96459.41;5115967;27;20055;-63
2022/07/01 04:43:44;;;;;;;6.43;2.55;;;;;;;26.01;50.74;96462.94;5115905;28;20055;-63
2022/07/01 04:46:11;;;;;;;3.55;2.42;;;;;;;26.31;49.68;96466.97;5116232;28;20051;-63
2022/07/01 04:48:38;;;;;;;6.43;2.63;;;;;;;26.71;49.19;96463.81;5115902;28;20048;-63
2022/07/01 04:51:05;;;;;;;6.78;2.40;;;;;;;26.99;48.29;96463.56;5115831;28;20055;-63
2022/07/01 04:53:32;;;;;;;8.07;2.10;;;;;;;27.26;48.12;96461.59;5115594;28;20051;-63
2022/07/01 04:55:59;;;;;;;3.60;1.95;;;;;;;27.71;47.28;96459.47;5115741;28;20043;-63
2022/07/01 04:58:26;;;;;;;3.88;2.30;;;;;;;28.06;46.78;96459.28;5115585;28;20043;-63
2022/07/01 05:00:55;;;;;;;6.53;2.15;;;;;;;28.36;47.50;96456.84;5115373;28;20083;-63
2022/07/01 05:03:22;;;;;;;16.60;2.58;;;;;;;28.63;44.61;96459.28;5115283;28;20062;-63
2022/07/01 05:05:49;;;;;;;3.55;1.90;;;;;;;28.97;46.75;96457.28;5115602;28;20047;-63
2022/07/01 05:08:16;;;;;;;2.80;2.13;;;;;;;29.21;46.32;96466.22;5115355;28;20081;-63
2022/07/01 05:10:43;;;;;;;3.78;2.30;;;;;;;29.50;44.49;96456.59;5115364;28;20047;-63
2022/07/01 05:13:10;;;;;;;5.32;2.10;;;;;;;29.81;45.02;96461.06;5115237;28;20450;-63
2022/07/01 05:15:37;;;;;;;7.18;2.60;;;;;;;30.01;43.69;96466.75;5114284;28;20447;-63
2022/07/01 05:23:31;;;;;;;11.75;2.53;;;;;;;30.66;41.12;96468.09;5115226;28;20054;-64
2022/07/01 05:25:58;;;;;;;6.70;2.33;;;;;;;30.72;40.60;96463.78;5114996;28;20048;-64
2022/07/01 05:28:25;;;;;;;9.30;2.70;;;;;;;30.95;42.59;96465.56;5115082;28;20105;-64
2022/07/01 05:30:52;;;;;;;5.25;2.13;;;;;;;31.25;40.42;96471.72;5114915;28;20050;-63
2022/07/01 05:33:21;;;;;;;7.95;2.30;;;;;;;31.36;42.17;96467.69;5114766;28;20052;-64
2022/07/01 05:35:48;;;;;;;5.20;2.50;;;;;;;31.63;41.17;96465.22;5114693;28;20048;-63
2022/07/01 05:38:15;;;;;;;4.93;2.22;;;;;;;31.96;39.34;96463.03;5114788;28;20044;-63
2022/07/01 05:40:43;;;;;;;9.52;2.13;;;;;;;32.21;40.46;96468.81;5114938;28;20050;-63
2022/07/01 05:43:10;;;;;;;9.80;2.28;;;;;;;32.51;39.56;96459.66;5114621;28;20059;-63
2022/07/01 05:45:37;;;;;;;5.15;2.38;;;;;;;32.71;39.50;96457.03;5114722;28;20138;-63
2022/07/01 05:48:05;;;;;;;8.15;2.53;;;;;;;32.95;40.03;96467.53;5114644;28;20048;-63
2022/07/01 05:50:34;;;;;;;5.97;2.15;;;;;;;33.20;39.17;96464.28;5114580;28;20051;-64
2022/07/01 05:53:01;;;;;;;6.53;2.63;;;;;;;33.24;36.15;96469.09;5114542;28;20054;-63
2022/07/01 05:55:28;;;;;;;5.05;2.58;;;;;;;33.34;38.33;96470.56;5114410;28;20504;-64
2022/07/01 05:57:55;;;;;;;8.15;2.50;;;;;;;33.58;39.01;96469.13;5114632;28;20093;-63
2022/07/01 06:00:22;;;;;;;5.32;2.60;;;;;;;33.53;36.95;96466.22;5114613;28;20051;-63
2022/07/01 06:02:49;;;;;;;7.15;2.50;;;;;;;33.61;38.50;96476.88;5114077;28;20113;-63
2022/07/01 06:05:16;;;;;;;5.22;2.15;;;;;;;33.79;35.72;96472.72;5114364;27;20058;-63
2022/07/01 06:07:45;;;;;;;11.48;2.50;;;;;;;33.75;37.13;96469.59;5114166;28;20439;-63
2022/07/01 06:10:12;;;;;;;4.78;2.10;;;;;;;33.44;36.40;96471.03;5114191;28;20473;-64
2022/07/01 06:12:40;;;;;;;3.03;1.98;;;;;;;33.38;33.88;96472.66;5112826;28;20050;-63
2022/07/01 06:15:10;;;;;;;6.07;2.03;;;;;;;33.35;37.51;96466.84;5113999;28;20044;-64
2022/07/01 06:17:38;;;;;;;11.10;2.45;;;;;;;33.50;37.53;96466.66;5114159;28;20043;-64
2022/07/01 06:20:06;;;;;;;4.68;2.22;;;;;;;33.64;36.71;96467.50;5113974;28;20171;-63
2022/07/01 06:22:34;;;;;;;13.27;2.67;;;;;;;33.87;38.11;96468.97;5113978;28;20083;-63
2022/07/01 06:25:03;;;;;;;5.50;2.42;;;;;;;34.04;34.47;96467.50;5113865;28;20047;-64
2022/07/01 06:27:30;;;;;;;6.27;2.30;;;;;;;34.33;36.59;96472.69;5113672;28;20079;-64
2022/07/01 06:29:58;;;;;;;9.95;2.20;;;;;;;34.67;33.70;96472.63;5113721;28;20703;-63
2022/07/01 06:32:25;;;;;;;6.93;2.13;;;;;;;34.70;34.47;96469.47;5113739;28;20058;-64
2022/07/01 06:34:53;;;;;;;4.72;2.63;;;;;;;34.91;35.55;96468.34;5113890;28;20047;-63
2022/07/01 06:37:21;;;;;;;2.80;2.10;;;;;;;34.78;34.54;96473.84;5113995;28;20046;-64
2022/07/01 06:39:49;;;;;;;7.07;2.20;;;;;;;34.72;34.24;96474.69;5113605;28;20043;-63
2022/07/01 06:42:19;;;;;;;8.93;2.88;;;;;;;34.75;35.66;96471.53;5113643;28;20048;-63
2022/07/01 06:44:46;;;;;;;7.43;2.30;;;;;;;35.10;33.89;96473.06;5113709;28;20051;-63
2022/07/01 06:47:14;;;;;;;9.60;2.72;;;;;;;35.36;33.36;96482.97;5113728;28;20503;-63
2022/07/01 06:49:41;;;;;;;4.70;2.63;;;;;;;35.51;31.06;96474.50;5113785;28;20395;-63
2022/07/01 06:52:09;;;;;;;7.05;2.67;;;;;;;35.63;31.66;96473.78;5113783;28;20144;-63
2022/07/01 06:54:37;;;;;;;6.43;2.28;;;;;;;35.84;30.63;96482.69;5113794;28;20459;-63
2022/07/01 06:57:06;;;;;;;5.68;1.92;;;;;;;36.04;29.22;96487.94;5113540;28;20077;-63
2022/07/01 06:59:34;;;;;;;7.60;2.30;;;;;;;36.14;26.94;96482.81;5113627;28;20083;-63
2022/07/01 07:02:02;;;;;;;4.68;2.08;;;;;;;36.17;30.30;96479.66;5113530;28;20126;-63
2022/07/01 07:04:29;;;;;;;8.73;2.38;;;;;;;35.87;30.60;96490.38;5113445;28;20112;-63
2022/07/01 07:06:56;;;;;;;6.63;2.40;;;;;;;35.78;28.70;96487.94;5113566;28;20474;-62
2022/07/01 07:09:24;;;;;;;5.13;2.25;;;;;;;35.89;27.94;96491.84;5113455;28;20047;-63
2022/07/01 07:11:51;;;;;;;6.50;2.65;;;;;;;35.65;27.25;96483.41;5113425;28;20105;-63
2022/07/01 07:14:19;;;;;;;2.50;2.15;;;;;;;35.66;27.51;96485.06;5113375;28;20055;-63
2022/07/01 07:16:47;;;;;;;3.60;2.17;;;;;;;35.98;27.26;96486.09;5113271;28;20096;-63
2022/07/01 07:19:17;;;;;;;5.50;1.75;;;;;;;36.15;28.04;96480.94;5113366;28;20436;-63
2022/07/01 07:21:44;;;;;;;4.45;2.22;;;;;;;36.16;26.12;96494.31;5113452;28;20040;-63
2022/07/01 07:24:12;;;;;;;6.32;2.17;;;;;;;36.28;28.33;96493.59;5113320;28;20089;-63
2022/07/01 07:26:39;;;;;;;2.80;2.20;;;;;;;36.57;27.62;96491.22;5113299;28;20054;-63
2022/07/01 07:29:06;;;;;;;5.80;2.63;;;;;;;36.78;29.65;96491.84;5113230;28;20094;-63
2022/07/01 07:31:33;;;;;;;3.15;1.90;;;;;;;36.68;26.56;96495.06;5113304;28;20048;-62
2022/07/01 07:34:02;;;;;;;9.70;2.17;;;;;;;36.77;29.07;96491.00;5113209;28;20489;-63
2022/07/01 07:36:31;;;;;;;9.52;2.53;;;;;;;36.74;28.54;96488.72;5113090;28;20051;-63
2022/07/01 07:38:59;;;;;;;7.68;2.85;;;;;;;36.94;26.87;96493.09;5114062;28;20067;-63
2022/07/01 07:41:27;;;;;;;8.93;2.67;;;;;;;36.85;24.37;96486.28;5117036;28;20131;-63
2022/07/01 07:43:58;;;;;;;7.80;2.50;;;;;;;36.62;25.14;96496.78;5117300;28;20048;-63
2022/07/01 07:46:26;;;;;;;3.13;2.20;;;;;;;36.39;24.65;96489.31;5117128;28;20051;-63
2022/07/01 07:48:54;;;;;;;6.10;2.30;;;;;;;36.26;26.30;96487.53;5116916;28;20122;-63
2022/07/01 07:51:24;;;;;;;6.00;2.40;;;;;;;35.94;26.66;96490.31;5116848;28;20108;-63
2022/07/01 07:53:52;;;;;;;7.35;2.42;;;;;;;35.60;25.87;96480.50;5116861;28;20051;-62
2022/07/01 07:56:20;;;;;;;7.07;2.47;;;;;;;35.89;27.78;96488.28;5116733;28;20075;-63
2022/07/01 07:58:47;;;;;;;6.75;2.22;;;;;;;36.14;27.31;96484.69;5116556;28;20122;-63
2022/07/01 08:01:15;;;;;;;9.95;2.60;;;;;;;35.89;25.94;96491.00;5116670;28;20386;-63
2022/07/01 08:03:42;;;;;;;9.63;3.08;;;;;;;35.88;25.89;96483.91;5116363;28;20047;-62
2022/07/01 08:06:09;;;;;;;4.07;2.20;;;;;;;36.03;25.54;96483.56;5116611;28;20105;-63
2022/07/01 08:08:38;;;;;;;5.38;2.15;;;;;;;36.01;24.88;96488.38;5116449;28;20150;-63
2022/07/01 08:11:05;;;;;;;6.55;2.40;;;;;;;35.77;24.77;96483.56;5116436;28;20043;-62
2022/07/01 08:13:32;;;;;;;6.82;2.35;;;;;;;35.91;28.41;96497.06;5116421;28;20130;-63
2022/07/01 08:16:00;;;;;;;5.45;2.47;;;;;;;35.79;24.20;96488.78;5116547;28;20480;-62
2022/07/01 08:18:28;;;;;;;4.82;2.70;;;;;;;35.37;26.20;96487.38;5116302;28;20055;-62
2022/07/01 08:20:55;;;;;;;4.68;2.50;;;;;;;35.15;24.52;96484.09;5116157;28;20059;-62
2022/07/01 08:23:23;;;;;;;8.23;2.45;;;;;;;34.89;26.03;96491.34;5116228;28;20052;-62
2022/07/01 08:25:52;;;;;;;4.93;2.65;;;;;;;34.60;27.31;96493.50;5116196;28;20066;-62
2022/07/01 08:28:21;;;;;;;7.57;2.58;;;;;;;34.65;26.18;96485.56;5116193;28;20135;-62
2022/07/01 08:30:48;;;;;;;4.50;2.42;;;;;;;34.58;27.77;96485.56;5116160;28;20058;-62
2022/07/01 08:33:16;;;;;;;6.43;2.67;;;;;;;34.89;28.66;96486.75;5116136;28;20485;-62
2022/07/01 08:35:43;;;;;;;7.68;2.75;;;;;;;34.41;26.60;96491.44;5116052;28;20043;-62
2022/07/01 08:38:11;;;;;;;10.75;2.83;;;;;;;34.34;26.49;96489.81;5115801;28;20039;-62
2022/07/01 08:40:38;;;;;;;6.50;2.80;;;;;;;34.37;27.43;96492.94;5115828;28;20055;-62
2022/07/01 08:43:08;;;;;;;8.80;3.00;;;;;;;34.11;26.56;96500.06;5115938;28;20043;-63
2022/07/01 08:45:37;;;;;;;12.37;2.90;;;;;;;33.57;27.58;96496.44;5115841;28;20138;-61
2022/07/01 08:48:06;;;;;;;4.83;2.40;;;;;;;33.21;28.50;96484.91;5115618;28;20124;-62
2022/07/01 08:50:36;;;;;;;8.90;2.55;;;;;;;33.17;28.75;96489.09;5115645;28;20471;-62
2022/07/01 08:53:04;;;;;;;3.15;2.85;;;;;;;32.73;29.69;96484.72;5115729;28;20044;-62
2022/07/01 08:55:31;;;;;;;5.43;2.65;;;;;;;32.40;30.27;96493.47;5115607;28;20465;-62
2022/07/01 08:57:59;;;;;;;5.50;2.80;;;;;;;32.43;30.34;96492.22;5115652;28;20048;-62
2022/07/01 09:00:34;;;;;;;7.72;2.60;;;;;;;32.50;29.97;96493.13;5115429;28;20772;-62
2022/07/01 09:03:03;;;;;;;4.75;3.00;;;;;;;32.94;30.42;96495.63;5115155;28;20406;-62
2022/07/01 09:05:32;;;;;;;5.38;2.55;;;;;;;33.40;29.52;96492.25;5115547;28;20047;-62
2022/07/01 09:08:01;;;;;;;8.33;2.47;;;;;;;33.26;29.27;96493.28;5115328;28;20051;-62
2022/07/01 09:10:30;;;;;;;7.18;2.92;;;;;;;33.47;32.46;96488.72;5115271;28;20363;-62
2022/07/01 09:12:58;;;;;;;4.88;3.00;;;;;;;34.03;31.88;96487.53;5115243;28;20047;-62
2022/07/01 09:15:27;;;;;;;6.47;2.58;;;;;;;34.60;32.38;96482.63;5115112;28;20075;-62
2022/07/01 09:18:03;;;;;;;3.67;2.70;;;;;;;35.02;29.08;96490.44;5115085;28;20093;-62
2022/07/01 09:20:33;;;;;;;10.32;3.00;;;;;;;35.31;29.42;96493.69;5114997;28;20051;-62
2022/07/01 09:23:05;;;;;;;5.75;3.13;;;;;;;35.06;28.79;96497.09;5115070;28;20074;-62
2022/07/01 09:25:37;;;;;;;6.55;2.78;;;;;;;34.33;28.89;96498.97;5114919;28;20066;-62
2022/07/01 09:28:09;;;;;;;6.82;2.65;;;;;;;33.61;30.47;96493.16;5114959;28;20125;-62
2022/07/01 09:30:37;;;;;;;8.55;2.53;;;;;;;33.39;31.20;96500.59;5115098;28;20445;-62
2022/07/01 09:33:15;;;;;;;6.40;2.75;;;;;;;32.97;31.71;96496.06;5114860;28;20048;-62
2022/07/01 09:35:44;;;;;;;3.33;2.80;;;;;;;33.01;31.49;96501.91;5114678;28;20052;-62
2022/07/01 09:38:12;;;;;;;8.02;2.78;;;;;;;32.89;31.92;96494.38;5114651;28;20040;-62
2022/07/01 09:40:51;;;;;;;6.68;2.85;;;;;;;32.75;31.16;96488.06;5114989;28;20066;-62
2022/07/01 09:43:21;;;;;;;4.50;3.00;;;;;;;32.65;31.81;96490.31;5114521;28;20486;-62
2022/07/01 09:45:56;;;;;;;7.40;2.78;;;;;;;32.75;31.54;96481.81;5114554;28;20054;-62
2022/07/01 09:48:26;;;;;;;6.20;3.00;;;;;;;32.96;32.39;96482.75;5114592;27;20474;-62
2022/07/01 09:50:54;;;;;;;7.25;2.60;;;;;;;33.05;29.73;96486.97;5114547;28;20088;-62
2022/07/01 09:53:21;;;;;;;6.47;2.95;;;;;;;33.25;30.98;96478.03;5114400;28;20125;-62
2022/07/01 09:55:49;;;;;;;15.75;3.22;;;;;;;33.32;32.96;96488.91;5114266;28;20449;-62
2022/07/01 09:58:16;;;;;;;6.00;3.22;;;;;;;33.28;30.95;96483.91;5114323;28;20113;-62
2022/07/01 10:00:44;;;;;;;7.35;2.78;;;;;;;33.30;32.61;96481.00;5114263;28;20044;-63
2022/07/01 10:03:13;;;;;;;5.15;2.97;;;;;;;33.15;32.64;96481.16;5113566;28;20079;-62
2022/07/01 10:05:46;;;;;;;14.52;3.10;;;;;;;33.12;34.12;96473.44;5114264;28;20047;-62
2022/07/01 10:08:42;;;;;;;4.20;3.13;;;;;;;33.09;32.47;96473.84;5114126;28;20468;-62
2022/07/01 10:11:39;;;;;;;6.38;3.10;;;;;;;32.81;32.22;96463.94;5114208;28;20047;-62
2022/07/01 10:14:08;;;;;;;6.57;2.63;;;;;;;33.00;32.51;96460.47;5113986;28;20108;-62
2022/07/01 10:16:38;;;;;;;5.53;2.80;;;;;;;33.35;32.86;96453.28;5114140;28;20075;-62
2022/07/01 10:19:26;;;;;;;5.45;2.85;;;;;;;33.78;30.70;96452.94;5114031;28;20130;-62
2022/07/01 10:21:57;;;;;;;6.65;3.25;;;;;;;33.86;31.84;96459.19;5113967;28;20040;-62
2022/07/01 10:24:26;;;;;;;6.70;3.00;;;;;;;34.09;30.64;96463.31;5113968;28;20130;-62
2022/07/01 10:26:59;;;;;;;9.18;2.92;;;;;;;33.78;29.06;96460.22;5113834;28;20048;-62
2022/07/01 10:29:31;;;;;;;7.65;2.80;;;;;;;33.50;29.23;96461.22;5113867;28;20137;-62
2022/07/01 10:32:04;;;;;;;6.68;2.78;;;;;;;33.36;30.03;96458.50;5114017;28;20051;-62
2022/07/01 10:34:39;;;;;;;6.10;3.10;;;;;;;33.00;31.09;96460.47;5113722;28;20051;-62
2022/07/01 10:37:09;;;;;;;5.85;2.80;;;;;;;32.63;31.40;96460.72;5113812;28;20054;-62
2022/07/01 10:39:59;;;;;;;6.85;3.00;;;;;;;32.34;31.91;96469.91;5113765;28;20564;-62
2022/07/01 10:42:31;;;;;;;9.13;3.30;;;;;;;32.24;32.11;96473.00;5113734;28;20047;-61
2022/07/01 10:45:05;;;;;;;4.55;3.15;;;;;;;31.95;33.36;96502.75;5113690;28;20043;-62
2022/07/01 10:47:33;;;;;;;10.35;2.95;;;;;;;31.68;34.70;96504.34;5113659;28;20071;-62
2022/07/01 10:50:05;;;;;;;5.32;3.03;;;;;;;31.04;36.56;96514.88;5113687;28;20043;-62
2022/07/01 10:52:34;;;;;;;11.18;3.88;;;;;;;30.26;42.79;96506.16;5113574;28;20484;-62
2022/07/01 10:55:05;;;;;;;10.63;4.23;;;;;;;29.23;44.82;96518.03;5113512;28;20100;-63
2022/07/01 10:57:40;;;;;;;8.00;4.82;;;;;;;28.21;45.14;96534.69;5113617;28;20047;-61
2022/07/01 11:00:31;;;;;;;9.30;3.40;;;;;;;27.04;43.80;96514.06;5113479;28;20481;-62
2022/07/01 11:03:07;;;;;;;6.68;3.55;;;;;;;26.41;46.95;96509.78;5113197;28;20503;-62
2022/07/01 11:05:36;;;;;;;5.95;3.45;;;;;;;26.07;50.99;96524.75;5113545;28;20050;-62
2022/07/01 11:08:07;;;;;;;5.65;3.13;;;;;;;25.70;51.06;96525.81;5113457;28;20047;-62
2022/07/01 11:10:34;;;;;;;17.98;3.47;;;;;;;25.41;53.67;96519.72;5113438;28;20044;-62
2022/07/01 11:13:03;;;;;;;5.93;3.70;;;;;;;25.19;53.28;96521.00;5113513;28;20040;-61
2022/07/01 11:15:31;;;;;;;9.95;3.67;;;;;;;24.91;55.63;96532.56;5116743;28;20458;-62
2022/07/01 11:18:00;;;;;;;6.13;3.72;;;;;;;24.70;54.69;96540.78;5117543;28;20044;-61
2022/07/01 11:20:31;;;;;;;8.68;3.78;;;;;;;24.04;57.69;96551.34;5117345;28;20070;-62
2022/07/01 11:22:59;;;;;;;6.00;3.78;;;;;;;23.17;59.87;96549.31;5117658;27;20051;-61
2022/07/01 11:25:28;;;;;;;14.43;5.13;;;;;;;22.93;63.67;96529.22;5117531;28;20048;-62
2022/07/01 11:27:56;;;;;;;16.52;4.28;;;;;;;22.98;64.30;96532.31;5117364;28;20055;-61
2022/07/01 11:30:24;;;;;;;5.93;4.00;;;;;;;22.89;65.04;96539.31;5117176;28;20123;-61
2022/07/01 11:32:54;;;;;;;9.40;4.30;;;;;;;22.77;65.19;96530.59;5117280;28;20066;-62
2022/07/01 11:40:58;;;;;;;9.15;4.88;;;;;;;22.87;68.55;96529.78;5117102;28;20050;-61
2022/07/01 11:43:27;;;;;;;12.13;5.07;;;;;;;23.09;70.57;96523.38;5117077;28;20050;-62
2022/07/01 11:45:55;;;;;;;7.20;5.00;;;;;;;23.21;70.72;96522.25;5117070;27;20048;-61
2022/07/01 11:48:37;;;;;;;8.55;5.18;;;;;;;23.29;70.32;96518.88;5117041;28;20051;-61
2022/07/01 11:51:09;;;;;;;10.13;5.00;;;;;;;23.40;71.75;96509.09;5116829;28;20039;-62
2022/07/01 11:53:37;;;;;;;10.90;5.18;;;;;;;23.57;73.01;96512.91;5116767;28;20085;-60
2022/07/01 11:56:07;;;;;;;17.05;5.60;;;;;;;23.64;71.32;96502.50;5116762;28;20055;-61
2022/07/01 11:58:49;;;;;;;9.73;5.72;;;;;;;23.56;72.10;96506.72;5116741;28;20408;-61
2022/07/01 12:01:27;;;;;;;9.10;4.75;;;;;;;23.62;72.44;96491.13;5116807;28;20039;-61
2022/07/01 12:03:56;;;;;;;10.48;5.22;;;;;;;23.71;72.33;96485.78;5116372;28;20094;-61
2022/07/01 12:06:26;;;;;;;6.63;4.90;;;;;;;23.68;71.87;96486.06;5116535;28;20056;-61
2022/07/01 12:08:56;;;;;;;8.98;5.70;;;;;;;23.75;72.14;96490.81;5116506;28;20044;-61
2022/07/01 12:11:26;;;;;;;7.88;5.00;;;;;;;23.91;73.17;96482.22;5116493;28;20130;-61
2022/07/01 12:13:56;;;;;;;7.45;5.78;;;;;;;24.07;72.46;96466.44;5116717;28;20047;-61
2022/07/01 12:16:23;;;;;;;10.18;4.70;;;;;;;24.38;70.26;96469.88;5116328;28;20135;-61
2022/07/01 12:18:57;;;;;;;7.40;4.85;;;;;;;24.66;68.27;96469.88;5116385;28;20135;-61
2022/07/01 12:21:26;;;;;;;6.28;5.30;;;;;;;24.99;69.81;96472.97;5116392;28;20136;-61
2022/07/01 12:24:07;;;;;;;8.38;5.45;;;;;;;25.29;69.14;96465.56;5116349;28;20054;-61
2022/07/01 12:26:36;;;;;;;7.95;4.38;;;;;;;25.57;68.00;96462.78;5115824;28;20142;-61